sensor_id;sensor_type;location;lat;lon;timestamp;P1;durP1;ratioP1;P2;durP2;ratioP2
10489;SDS011;35569;48.402;10.670;2023-11-19T00:00:31;1.50;;;1.23;;
10489;SDS011;35569;48.402;10.670;2023-11-19T00:01:04;1.30;;;1.30;;
10489;SDS011;35569;48.402;10.670;2023-11-19T00:01:37;1.40;;;1.30;;
10489;SDS011;35569;48.402;10.670;2023-11-19T00:02:10;1.20;;;1.20;;
10489;SDS011;35569;48.402;10.670;2023-11-19T00:02:45;1.30;;;1.20;;
10489;SDS011;35569;48.402;10.670;2023-11-19T00:03:19;1.47;;;1.47;;
10489;SDS011;35569;48.402;10.670;2023-11-19T00:03:52;1.50;;;1.40;;
10489;SDS011;35569;48.402;10.670;2023-11-19T00:04:27;1.40;;;1.40;;
10489;SDS011;35569;48.402;10.670;2023-11-19T00:05:00;1.27;;;1.27;;
10489;SDS011;35569;48.402;10.670;2023-11-19T00:05:35;1.97;;;1.87;;
10489;SDS011;35569;48.402;10.670;2023-11-19T00:06:10;1.70;;;1.70;;
10489;SDS011;35569;48.402;10.670;2023-11-19T00:06:43;1.30;;;1.30;;
10489;SDS011;35569;48.402;10.670;2023-11-19T00:07:15;1.00;;;1.00;;
10489;SDS011;35569;48.402;10.670;2023-11-19T00:07:51;1.77;;;1.37;;
10489;SDS011;35569;48.402;10.670;2023-11-19T00:08:24;1.63;;;1.53;;
10489;SDS011;35569;48.402;10.670;2023-11-19T00:09:00;1.60;;;1.50;;
10489;SDS011;35569;48.402;10.670;2023-11-19T00:09:32;1.30;;;1.30;;
10489;SDS011;35569;48.402;10.670;2023-11-19T00:10:06;1.20;;;1.20;;
10489;SDS011;35569;48.402;10.670;2023-11-19T00:10:41;1.27;;;1.20;;
10489;SDS011;35569;48.402;10.670;2023-11-19T00:11:18;1.60;;;1.50;;
10489;SDS011;35569;48.402;10.670;2023-11-19T00:11:50;1.70;;;1.57;;
10489;SDS011;35569;48.402;10.670;2023-11-19T00:12:25;1.17;;;1.13;;
10489;SDS011;35569;48.402;10.670;2023-11-19T00:12:58;1.20;;;1.20;;
10489;SDS011;35569;48.402;10.670;2023-11-19T00:13:34;1.60;;;1.60;;
10489;SDS011;35569;48.402;10.670;2023-11-19T00:14:06;1.40;;;1.30;;
10489;SDS011;35569;48.402;10.670;2023-11-19T00:14:40;1.37;;;1.37;;
10489;SDS011;35569;48.402;10.670;2023-11-19T00:15:13;1.30;;;1.20;;
10489;SDS011;35569;48.402;10.670;2023-11-19T00:15:45;1.23;;;1.23;;
10489;SDS011;35569;48.402;10.670;2023-11-19T00:16:20;1.10;;;1.10;;
10489;SDS011;35569;48.402;10.670;2023-11-19T00:16:52;1.10;;;1.10;;
10489;SDS011;35569;48.402;10.670;2023-11-19T00:17:25;1.33;;;1.33;;
10489;SDS011;35569;48.402;10.670;2023-11-19T00:17:58;1.23;;;1.13;;
10489;SDS011;35569;48.402;10.670;2023-11-19T00:18:36;1.10;;;1.10;;
10489;SDS011;35569;48.402;10.670;2023-11-19T00:19:08;1.50;;;1.40;;
10489;SDS011;35569;48.402;10.670;2023-11-19T00:19:41;1.23;;;1.23;;
10489;SDS011;35569;48.402;10.670;2023-11-19T00:20:14;1.60;;;1.60;;
10489;SDS011;35569;48.402;10.670;2023-11-19T00:20:52;1.20;;;1.10;;
10489;SDS011;35569;48.402;10.670;2023-11-19T00:21:25;1.50;;;1.40;;
10489;SDS011;35569;48.402;10.670;2023-11-19T00:22:00;1.30;;;1.20;;
10489;SDS011;35569;48.402;10.670;2023-11-19T00:22:35;0.97;;;0.97;;
10489;SDS011;35569;48.402;10.670;2023-11-19T00:23:20;1.10;;;1.10;;
10489;SDS011;35569;48.402;10.670;2023-11-19T00:23:52;1.00;;;1.00;;
10489;SDS011;35569;48.402;10.670;2023-11-19T00:24:24;1.10;;;1.10;;
10489;SDS011;35569;48.402;10.670;2023-11-19T00:25:00;1.00;;;1.00;;
10489;SDS011;35569;48.402;10.670;2023-11-19T00:25:32;1.50;;;1.40;;
10489;SDS011;35569;48.402;10.670;2023-11-19T00:26:05;1.10;;;1.10;;
10489;SDS011;35569;48.402;10.670;2023-11-19T00:26:41;1.33;;;1.23;;
10489;SDS011;35569;48.402;10.670;2023-11-19T00:27:13;1.17;;;1.17;;
10489;SDS011;35569;48.402;10.670;2023-11-19T00:27:47;1.40;;;1.40;;
10489;SDS011;35569;48.402;10.670;2023-11-19T00:28:20;1.60;;;1.60;;
10489;SDS011;35569;48.402;10.670;2023-11-19T00:28:55;1.33;;;1.23;;
10489;SDS011;35569;48.402;10.670;2023-11-19T00:29:29;6.47;;;1.40;;
10489;SDS011;35569;48.402;10.670;2023-11-19T00:30:01;1.20;;;1.20;;
10489;SDS011;35569;48.402;10.670;2023-11-19T00:30:37;1.20;;;1.20;;
10489;SDS011;35569;48.402;10.670;2023-11-19T00:31:12;1.13;;;1.13;;
10489;SDS011;35569;48.402;10.670;2023-11-19T00:31:45;1.20;;;1.20;;
10489;SDS011;35569;48.402;10.670;2023-11-19T00:32:17;1.20;;;1.20;;
10489;SDS011;35569;48.402;10.670;2023-11-19T00:32:50;1.17;;;1.17;;
10489;SDS011;35569;48.402;10.670;2023-11-19T00:33:25;1.47;;;1.37;;
10489;SDS011;35569;48.402;10.670;2023-11-19T00:33:57;1.07;;;1.00;;
10489;SDS011;35569;48.402;10.670;2023-11-19T00:34:30;1.00;;;1.00;;
10489;SDS011;35569;48.402;10.670;2023-11-19T00:35:03;1.27;;;1.20;;
10489;SDS011;35569;48.402;10.670;2023-11-19T00:35:39;2.80;;;1.00;;
10489;SDS011;35569;48.402;10.670;2023-11-19T00:36:14;1.27;;;1.20;;
10489;SDS011;35569;48.402;10.670;2023-11-19T00:36:46;1.00;;;1.00;;
10489;SDS011;35569;48.402;10.670;2023-11-19T00:37:19;1.20;;;1.20;;
10489;SDS011;35569;48.402;10.670;2023-11-19T00:37:54;1.37;;;1.30;;
10489;SDS011;35569;48.402;10.670;2023-11-19T00:38:26;1.20;;;1.20;;
10489;SDS011;35569;48.402;10.670;2023-11-19T00:38:59;1.00;;;1.00;;
10489;SDS011;35569;48.402;10.670;2023-11-19T00:39:31;1.20;;;1.20;;
10489;SDS011;35569;48.402;10.670;2023-11-19T00:40:07;0.87;;;0.87;;
10489;SDS011;35569;48.402;10.670;2023-11-19T00:40:43;1.00;;;1.00;;
10489;SDS011;35569;48.402;10.670;2023-11-19T00:41:16;1.20;;;1.20;;
10489;SDS011;35569;48.402;10.670;2023-11-19T00:41:48;1.23;;;1.13;;
10489;SDS011;35569;48.402;10.670;2023-11-19T00:42:23;1.47;;;1.47;;
10489;SDS011;35569;48.402;10.670;2023-11-19T00:42:56;1.00;;;1.00;;
10489;SDS011;35569;48.402;10.670;2023-11-19T00:43:31;1.00;;;1.00;;
10489;SDS011;35569;48.402;10.670;2023-11-19T00:44:04;1.03;;;1.03;;
10489;SDS011;35569;48.402;10.670;2023-11-19T00:44:39;1.10;;;1.10;;
10489;SDS011;35569;48.402;10.670;2023-11-19T00:45:21;1.00;;;1.00;;
10489;SDS011;35569;48.402;10.670;2023-11-19T00:45:55;0.80;;;0.80;;
10489;SDS011;35569;48.402;10.670;2023-11-19T00:46:27;0.93;;;0.93;;
10489;SDS011;35569;48.402;10.670;2023-11-19T00:47:03;1.00;;;1.00;;
10489;SDS011;35569;48.402;10.670;2023-11-19T00:47:36;0.80;;;0.80;;
10489;SDS011;35569;48.402;10.670;2023-11-19T00:48:09;1.13;;;1.13;;
10489;SDS011;35569;48.402;10.670;2023-11-19T00:48:44;1.13;;;1.13;;
10489;SDS011;35569;48.402;10.670;2023-11-19T00:49:19;1.00;;;1.00;;
10489;SDS011;35569;48.402;10.670;2023-11-19T00:49:51;1.03;;;1.03;;
10489;SDS011;35569;48.402;10.670;2023-11-19T00:50:27;1.20;;;1.20;;
10489;SDS011;35569;48.402;10.670;2023-11-19T00:51:01;1.20;;;1.20;;
10489;SDS011;35569;48.402;10.670;2023-11-19T00:51:36;0.90;;;0.90;;
10489;SDS011;35569;48.402;10.670;2023-11-19T00:52:09;1.00;;;1.00;;
10489;SDS011;35569;48.402;10.670;2023-11-19T00:52:44;1.00;;;1.00;;
10489;SDS011;35569;48.402;10.670;2023-11-19T00:53:17;1.10;;;1.00;;
10489;SDS011;35569;48.402;10.670;2023-11-19T00:53:49;1.00;;;1.00;;
10489;SDS011;35569;48.402;10.670;2023-11-19T00:54:22;1.33;;;1.23;;
10489;SDS011;35569;48.402;10.670;2023-11-19T00:54:57;0.90;;;0.87;;
10489;SDS011;35569;48.402;10.670;2023-11-19T00:55:30;0.90;;;0.90;;
10489;SDS011;35569;48.402;10.670;2023-11-19T00:56:02;1.10;;;1.10;;
10489;SDS011;35569;48.402;10.670;2023-11-19T00:56:39;0.93;;;0.93;;
10489;SDS011;35569;48.402;10.670;2023-11-19T00:57:11;1.10;;;1.10;;
10489;SDS011;35569;48.402;10.670;2023-11-19T00:57:44;1.10;;;1.00;;
10489;SDS011;35569;48.402;10.670;2023-11-19T00:58:16;1.30;;;1.30;;
10489;SDS011;35569;48.402;10.670;2023-11-19T00:58:52;0.90;;;0.90;;
10489;SDS011;35569;48.402;10.670;2023-11-19T00:59:24;1.20;;;1.10;;
10489;SDS011;35569;48.402;10.670;2023-11-19T00:59:56;1.10;;;1.10;;
10489;SDS011;35569;48.402;10.670;2023-11-19T01:00:29;0.90;;;0.90;;
10489;SDS011;35569;48.402;10.670;2023-11-19T01:01:06;1.00;;;0.90;;
10489;SDS011;35569;48.402;10.670;2023-11-19T01:01:39;1.10;;;1.10;;
10489;SDS011;35569;48.402;10.670;2023-11-19T01:02:12;0.97;;;0.97;;
10489;SDS011;35569;48.402;10.670;2023-11-19T01:02:46;0.90;;;0.90;;
10489;SDS011;35569;48.402;10.670;2023-11-19T01:03:23;1.00;;;1.00;;
10489;SDS011;35569;48.402;10.670;2023-11-19T01:03:56;1.00;;;1.00;;
10489;SDS011;35569;48.402;10.670;2023-11-19T01:04:29;0.90;;;0.90;;
10489;SDS011;35569;48.402;10.670;2023-11-19T01:05:05;1.10;;;1.10;;
10489;SDS011;35569;48.402;10.670;2023-11-19T01:05:40;1.00;;;1.00;;
10489;SDS011;35569;48.402;10.670;2023-11-19T01:06:14;0.90;;;0.90;;
10489;SDS011;35569;48.402;10.670;2023-11-19T01:06:52;0.80;;;0.80;;
10489;SDS011;35569;48.402;10.670;2023-11-19T01:07:24;1.20;;;1.20;;
10489;SDS011;35569;48.402;10.670;2023-11-19T01:07:58;1.00;;;1.00;;
10489;SDS011;35569;48.402;10.670;2023-11-19T01:08:33;0.83;;;0.83;;
10489;SDS011;35569;48.402;10.670;2023-11-19T01:09:07;1.00;;;1.00;;
10489;SDS011;35569;48.402;10.670;2023-11-19T01:09:41;0.87;;;0.87;;
10489;SDS011;35569;48.402;10.670;2023-11-19T01:10:13;0.90;;;0.90;;
10489;SDS011;35569;48.402;10.670;2023-11-19T01:10:50;1.10;;;1.00;;
10489;SDS011;35569;48.402;10.670;2023-11-19T01:11:23;1.17;;;1.17;;
10489;SDS011;35569;48.402;10.670;2023-11-19T01:11:56;1.13;;;1.13;;
10489;SDS011;35569;48.402;10.670;2023-11-19T01:12:28;0.80;;;0.80;;
10489;SDS011;35569;48.402;10.670;2023-11-19T01:13:04;0.90;;;0.90;;
10489;SDS011;35569;48.402;10.670;2023-11-19T01:13:38;0.90;;;0.90;;
10489;SDS011;35569;48.402;10.670;2023-11-19T01:14:11;0.80;;;0.80;;
10489;SDS011;35569;48.402;10.670;2023-11-19T01:14:43;1.20;;;1.20;;
10489;SDS011;35569;48.402;10.670;2023-11-19T01:15:18;0.90;;;0.90;;
10489;SDS011;35569;48.402;10.670;2023-11-19T01:15:51;0.90;;;0.90;;
10489;SDS011;35569;48.402;10.670;2023-11-19T01:16:24;0.83;;;0.83;;
10489;SDS011;35569;48.402;10.670;2023-11-19T01:16:58;1.03;;;1.03;;
10489;SDS011;35569;48.402;10.670;2023-11-19T01:17:33;1.07;;;1.07;;
10489;SDS011;35569;48.402;10.670;2023-11-19T01:18:06;1.00;;;1.00;;
10489;SDS011;35569;48.402;10.670;2023-11-19T01:18:41;0.90;;;0.90;;
10489;SDS011;35569;48.402;10.670;2023-11-19T01:19:14;0.83;;;0.83;;
10489;SDS011;35569;48.402;10.670;2023-11-19T01:19:49;1.03;;;0.97;;
10489;SDS011;35569;48.402;10.670;2023-11-19T01:20:22;1.07;;;1.07;;
10489;SDS011;35569;48.402;10.670;2023-11-19T01:20:55;0.80;;;0.80;;
10489;SDS011;35569;48.402;10.670;2023-11-19T01:21:30;0.80;;;0.80;;
10489;SDS011;35569;48.402;10.670;2023-11-19T01:22:05;1.07;;;1.07;;
10489;SDS011;35569;48.402;10.670;2023-11-19T01:22:38;0.80;;;0.80;;
10489;SDS011;35569;48.402;10.670;2023-11-19T01:23:12;1.00;;;1.00;;
10489;SDS011;35569;48.402;10.670;2023-11-19T01:23:45;0.90;;;0.90;;
10489;SDS011;35569;48.402;10.670;2023-11-19T01:24:17;0.90;;;0.90;;
10489;SDS011;35569;48.402;10.670;2023-11-19T01:24:53;0.80;;;0.80;;
10489;SDS011;35569;48.402;10.670;2023-11-19T01:25:26;0.70;;;0.70;;
10489;SDS011;35569;48.402;10.670;2023-11-19T01:25:59;1.07;;;0.73;;
10489;SDS011;35569;48.402;10.670;2023-11-19T01:26:34;1.10;;;1.10;;
10489;SDS011;35569;48.402;10.670;2023-11-19T01:27:07;1.03;;;0.97;;
10489;SDS011;35569;48.402;10.670;2023-11-19T01:27:40;0.73;;;0.73;;
10489;SDS011;35569;48.402;10.670;2023-11-19T01:28:12;0.80;;;0.80;;
10489;SDS011;35569;48.402;10.670;2023-11-19T01:28:47;0.83;;;0.80;;
10489;SDS011;35569;48.402;10.670;2023-11-19T01:29:23;0.80;;;0.80;;
10489;SDS011;35569;48.402;10.670;2023-11-19T01:29:55;0.60;;;0.60;;
10489;SDS011;35569;48.402;10.670;2023-11-19T01:30:28;1.40;;;0.90;;
10489;SDS011;35569;48.402;10.670;2023-11-19T01:31:03;0.97;;;0.90;;
10489;SDS011;35569;48.402;10.670;2023-11-19T01:31:36;0.60;;;0.60;;
10489;SDS011;35569;48.402;10.670;2023-11-19T01:32:09;0.83;;;0.83;;
10489;SDS011;35569;48.402;10.670;2023-11-19T01:32:41;0.90;;;0.90;;
10489;SDS011;35569;48.402;10.670;2023-11-19T01:33:17;0.80;;;0.80;;
10489;SDS011;35569;48.402;10.670;2023-11-19T01:33:49;0.80;;;0.80;;
10489;SDS011;35569;48.402;10.670;2023-11-19T01:34:22;0.80;;;0.80;;
10489;SDS011;35569;48.402;10.670;2023-11-19T01:34:54;1.10;;;1.10;;
10489;SDS011;35569;48.402;10.670;2023-11-19T01:35:30;0.90;;;0.90;;
10489;SDS011;35569;48.402;10.670;2023-11-19T01:36:02;0.80;;;0.80;;
10489;SDS011;35569;48.402;10.670;2023-11-19T01:36:36;0.97;;;0.97;;
10489;SDS011;35569;48.402;10.670;2023-11-19T01:37:11;1.00;;;0.83;;
10489;SDS011;35569;48.402;10.670;2023-11-19T01:37:46;0.70;;;0.70;;
10489;SDS011;35569;48.402;10.670;2023-11-19T01:38:18;0.90;;;0.90;;
10489;SDS011;35569;48.402;10.670;2023-11-19T01:38:51;0.97;;;0.97;;
10489;SDS011;35569;48.402;10.670;2023-11-19T01:39:24;0.93;;;0.93;;
10489;SDS011;35569;48.402;10.670;2023-11-19T01:39:59;0.97;;;0.97;;
10489;SDS011;35569;48.402;10.670;2023-11-19T01:40:31;1.20;;;0.80;;
10489;SDS011;35569;48.402;10.670;2023-11-19T01:41:04;0.90;;;0.90;;
10489;SDS011;35569;48.402;10.670;2023-11-19T01:41:36;0.90;;;0.90;;
10489;SDS011;35569;48.402;10.670;2023-11-19T01:42:10;0.80;;;0.80;;
10489;SDS011;35569;48.402;10.670;2023-11-19T01:42:47;1.07;;;0.73;;
10489;SDS011;35569;48.402;10.670;2023-11-19T01:43:33;0.80;;;0.80;;
10489;SDS011;35569;48.402;10.670;2023-11-19T01:44:06;1.27;;;1.00;;
10489;SDS011;35569;48.402;10.670;2023-11-19T01:44:38;0.80;;;0.80;;
10489;SDS011;35569;48.402;10.670;2023-11-19T01:45:21;1.10;;;1.00;;
10489;SDS011;35569;48.402;10.670;2023-11-19T01:46:00;0.80;;;0.80;;
10489;SDS011;35569;48.402;10.670;2023-11-19T01:46:33;0.87;;;0.87;;
10489;SDS011;35569;48.402;10.670;2023-11-19T01:47:07;0.97;;;0.97;;
10489;SDS011;35569;48.402;10.670;2023-11-19T01:47:42;0.70;;;0.70;;
10489;SDS011;35569;48.402;10.670;2023-11-19T01:48:15;0.60;;;0.60;;
10489;SDS011;35569;48.402;10.670;2023-11-19T01:48:48;0.70;;;0.70;;
10489;SDS011;35569;48.402;10.670;2023-11-19T01:49:23;0.67;;;0.67;;
10489;SDS011;35569;48.402;10.670;2023-11-19T01:49:55;0.70;;;0.70;;
10489;SDS011;35569;48.402;10.670;2023-11-19T01:50:28;0.83;;;0.83;;
10489;SDS011;35569;48.402;10.670;2023-11-19T01:51:01;0.80;;;0.80;;
10489;SDS011;35569;48.402;10.670;2023-11-19T01:51:38;0.90;;;0.90;;
10489;SDS011;35569;48.402;10.670;2023-11-19T01:52:13;0.80;;;0.80;;
10489;SDS011;35569;48.402;10.670;2023-11-19T01:52:46;1.00;;;1.00;;
10489;SDS011;35569;48.402;10.670;2023-11-19T01:53:19;0.80;;;0.80;;
10489;SDS011;35569;48.402;10.670;2023-11-19T01:53:54;0.80;;;0.80;;
10489;SDS011;35569;48.402;10.670;2023-11-19T01:54:27;1.23;;;1.13;;
10489;SDS011;35569;48.402;10.670;2023-11-19T01:55:00;0.80;;;0.80;;
10489;SDS011;35569;48.402;10.670;2023-11-19T01:55:34;0.70;;;0.70;;
10489;SDS011;35569;48.402;10.670;2023-11-19T01:56:09;0.80;;;0.80;;
10489;SDS011;35569;48.402;10.670;2023-11-19T01:56:44;0.97;;;0.93;;
10489;SDS011;35569;48.402;10.670;2023-11-19T01:57:16;1.07;;;0.70;;
10489;SDS011;35569;48.402;10.670;2023-11-19T01:57:49;0.70;;;0.70;;
10489;SDS011;35569;48.402;10.670;2023-11-19T01:58:24;0.90;;;0.90;;
10489;SDS011;35569;48.402;10.670;2023-11-19T01:58:57;0.77;;;0.77;;
10489;SDS011;35569;48.402;10.670;2023-11-19T01:59:30;0.60;;;0.60;;
10489;SDS011;35569;48.402;10.670;2023-11-19T02:00:02;0.70;;;0.70;;
10489;SDS011;35569;48.402;10.670;2023-11-19T02:00:44;2.67;;;0.80;;
10489;SDS011;35569;48.402;10.670;2023-11-19T02:01:17;0.80;;;0.80;;
10489;SDS011;35569;48.402;10.670;2023-11-19T02:01:49;0.60;;;0.60;;
10489;SDS011;35569;48.402;10.670;2023-11-19T02:02:32;0.97;;;0.97;;
10489;SDS011;35569;48.402;10.670;2023-11-19T02:03:05;0.80;;;0.80;;
10489;SDS011;35569;48.402;10.670;2023-11-19T02:03:38;0.93;;;0.93;;
10489;SDS011;35569;48.402;10.670;2023-11-19T02:04:11;0.70;;;0.70;;
10489;SDS011;35569;48.402;10.670;2023-11-19T02:04:49;0.80;;;0.80;;
10489;SDS011;35569;48.402;10.670;2023-11-19T02:05:21;1.90;;;0.80;;
10489;SDS011;35569;48.402;10.670;2023-11-19T02:05:54;0.70;;;0.70;;
10489;SDS011;35569;48.402;10.670;2023-11-19T02:06:27;0.77;;;0.77;;
10489;SDS011;35569;48.402;10.670;2023-11-19T02:07:00;0.63;;;0.63;;
10489;SDS011;35569;48.402;10.670;2023-11-19T02:07:38;0.80;;;0.80;;
10489;SDS011;35569;48.402;10.670;2023-11-19T02:08:10;0.83;;;0.80;;
10489;SDS011;35569;48.402;10.670;2023-11-19T02:08:46;0.73;;;0.73;;
10489;SDS011;35569;48.402;10.670;2023-11-19T02:09:18;0.90;;;0.90;;
10489;SDS011;35569;48.402;10.670;2023-11-19T02:09:54;1.07;;;0.87;;
10489;SDS011;35569;48.402;10.670;2023-11-19T02:10:26;0.70;;;0.70;;
10489;SDS011;35569;48.402;10.670;2023-11-19T02:10:58;0.70;;;0.70;;
10489;SDS011;35569;48.402;10.670;2023-11-19T02:11:31;0.60;;;0.60;;
10489;SDS011;35569;48.402;10.670;2023-11-19T02:12:06;0.63;;;0.63;;
10489;SDS011;35569;48.402;10.670;2023-11-19T02:12:39;0.87;;;0.70;;
10489;SDS011;35569;48.402;10.670;2023-11-19T02:13:14;0.63;;;0.63;;
10489;SDS011;35569;48.402;10.670;2023-11-19T02:13:49;0.70;;;0.70;;
10489;SDS011;35569;48.402;10.670;2023-11-19T02:14:22;0.60;;;0.60;;
10489;SDS011;35569;48.402;10.670;2023-11-19T02:14:57;0.70;;;0.70;;
10489;SDS011;35569;48.402;10.670;2023-11-19T02:15:30;0.90;;;0.90;;
10489;SDS011;35569;48.402;10.670;2023-11-19T02:16:06;0.83;;;0.83;;
10489;SDS011;35569;48.402;10.670;2023-11-19T02:16:41;0.60;;;0.60;;
10489;SDS011;35569;48.402;10.670;2023-11-19T02:18:19;0.80;;;0.80;;
10489;SDS011;35569;48.402;10.670;2023-11-19T02:18:55;0.60;;;0.60;;
10489;SDS011;35569;48.402;10.670;2023-11-19T02:19:27;0.97;;;0.70;;
10489;SDS011;35569;48.402;10.670;2023-11-19T02:20:00;0.70;;;0.70;;
10489;SDS011;35569;48.402;10.670;2023-11-19T02:20:34;0.70;;;0.70;;
10489;SDS011;35569;48.402;10.670;2023-11-19T02:21:09;0.80;;;0.80;;
10489;SDS011;35569;48.402;10.670;2023-11-19T02:21:42;0.80;;;0.80;;
10489;SDS011;35569;48.402;10.670;2023-11-19T02:22:14;0.80;;;0.80;;
10489;SDS011;35569;48.402;10.670;2023-11-19T02:22:50;0.90;;;0.90;;
10489;SDS011;35569;48.402;10.670;2023-11-19T02:23:25;0.70;;;0.70;;
10489;SDS011;35569;48.402;10.670;2023-11-19T02:23:59;0.60;;;0.60;;
10489;SDS011;35569;48.402;10.670;2023-11-19T02:24:35;0.80;;;0.77;;
10489;SDS011;35569;48.402;10.670;2023-11-19T02:25:12;0.60;;;0.60;;
10489;SDS011;35569;48.402;10.670;2023-11-19T02:26:03;0.60;;;0.60;;
10489;SDS011;35569;48.402;10.670;2023-11-19T02:26:43;0.53;;;0.53;;
10489;SDS011;35569;48.402;10.670;2023-11-19T02:27:22;1.03;;;1.03;;
10489;SDS011;35569;48.402;10.670;2023-11-19T02:28:03;0.83;;;0.83;;
10489;SDS011;35569;48.402;10.670;2023-11-19T02:28:37;0.70;;;0.70;;
10489;SDS011;35569;48.402;10.670;2023-11-19T02:29:12;0.70;;;0.70;;
10489;SDS011;35569;48.402;10.670;2023-11-19T02:29:45;1.07;;;0.97;;
10489;SDS011;35569;48.402;10.670;2023-11-19T02:30:17;0.70;;;0.70;;
10489;SDS011;35569;48.402;10.670;2023-11-19T02:30:49;0.73;;;0.73;;
10489;SDS011;35569;48.402;10.670;2023-11-19T02:31:25;0.77;;;0.77;;
10489;SDS011;35569;48.402;10.670;2023-11-19T02:31:59;0.70;;;0.70;;
10489;SDS011;35569;48.402;10.670;2023-11-19T02:32:31;0.80;;;0.80;;
10489;SDS011;35569;48.402;10.670;2023-11-19T02:33:04;0.70;;;0.70;;
10489;SDS011;35569;48.402;10.670;2023-11-19T02:33:40;0.50;;;0.50;;
10489;SDS011;35569;48.402;10.670;2023-11-19T02:34:12;0.80;;;0.80;;
10489;SDS011;35569;48.402;10.670;2023-11-19T02:34:45;0.70;;;0.70;;
10489;SDS011;35569;48.402;10.670;2023-11-19T02:35:17;0.53;;;0.53;;
10489;SDS011;35569;48.402;10.670;2023-11-19T02:35:53;0.60;;;0.60;;
10489;SDS011;35569;48.402;10.670;2023-11-19T02:36:25;0.60;;;0.60;;
10489;SDS011;35569;48.402;10.670;2023-11-19T02:36:58;0.63;;;0.63;;
10489;SDS011;35569;48.402;10.670;2023-11-19T02:37:30;0.70;;;0.70;;
10489;SDS011;35569;48.402;10.670;2023-11-19T02:38:05;0.70;;;0.70;;
10489;SDS011;35569;48.402;10.670;2023-11-19T02:38:38;0.60;;;0.60;;
10489;SDS011;35569;48.402;10.670;2023-11-19T02:39:11;0.60;;;0.60;;
10489;SDS011;35569;48.402;10.670;2023-11-19T02:39:46;0.60;;;0.60;;
10489;SDS011;35569;48.402;10.670;2023-11-19T02:40:19;0.73;;;0.73;;
10489;SDS011;35569;48.402;10.670;2023-11-19T02:40:51;0.70;;;0.70;;
10489;SDS011;35569;48.402;10.670;2023-11-19T02:41:24;0.80;;;0.80;;
10489;SDS011;35569;48.402;10.670;2023-11-19T02:41:59;0.70;;;0.70;;
10489;SDS011;35569;48.402;10.670;2023-11-19T02:42:31;0.93;;;0.93;;
10489;SDS011;35569;48.402;10.670;2023-11-19T02:43:06;0.70;;;0.70;;
10489;SDS011;35569;48.402;10.670;2023-11-19T02:43:40;0.70;;;0.70;;
10489;SDS011;35569;48.402;10.670;2023-11-19T02:44:15;0.70;;;0.70;;
10489;SDS011;35569;48.402;10.670;2023-11-19T02:44:47;0.70;;;0.70;;
10489;SDS011;35569;48.402;10.670;2023-11-19T02:45:20;0.70;;;0.70;;
10489;SDS011;35569;48.402;10.670;2023-11-19T02:45:53;0.63;;;0.63;;
10489;SDS011;35569;48.402;10.670;2023-11-19T02:46:28;0.60;;;0.60;;
10489;SDS011;35569;48.402;10.670;2023-11-19T02:47:01;0.70;;;0.70;;
10489;SDS011;35569;48.402;10.670;2023-11-19T02:47:35;0.70;;;0.70;;
10489;SDS011;35569;48.402;10.670;2023-11-19T02:48:08;0.60;;;0.60;;
10489;SDS011;35569;48.402;10.670;2023-11-19T02:48:43;0.70;;;0.70;;
10489;SDS011;35569;48.402;10.670;2023-11-19T02:49:17;0.67;;;0.67;;
10489;SDS011;35569;48.402;10.670;2023-11-19T02:49:50;0.73;;;0.73;;
10489;SDS011;35569;48.402;10.670;2023-11-19T02:50:24;0.83;;;0.83;;
10489;SDS011;35569;48.402;10.670;2023-11-19T02:51:00;0.80;;;0.80;;
10489;SDS011;35569;48.402;10.670;2023-11-19T02:51:32;0.60;;;0.60;;
10489;SDS011;35569;48.402;10.670;2023-11-19T02:52:06;0.70;;;0.70;;
10489;SDS011;35569;48.402;10.670;2023-11-19T02:52:42;0.63;;;0.63;;
10489;SDS011;35569;48.402;10.670;2023-11-19T02:53:17;0.70;;;0.70;;
10489;SDS011;35569;48.402;10.670;2023-11-19T02:53:53;0.70;;;0.70;;
10489;SDS011;35569;48.402;10.670;2023-11-19T02:54:25;0.70;;;0.70;;
10489;SDS011;35569;48.402;10.670;2023-11-19T02:54:59;0.63;;;0.63;;
10489;SDS011;35569;48.402;10.670;2023-11-19T02:55:34;0.70;;;0.70;;
10489;SDS011;35569;48.402;10.670;2023-11-19T02:56:10;0.70;;;0.70;;
10489;SDS011;35569;48.402;10.670;2023-11-19T02:56:47;0.80;;;0.80;;
10489;SDS011;35569;48.402;10.670;2023-11-19T02:57:30;0.80;;;0.67;;
10489;SDS011;35569;48.402;10.670;2023-11-19T02:58:03;0.60;;;0.60;;
10489;SDS011;35569;48.402;10.670;2023-11-19T02:58:45;0.63;;;0.63;;
10489;SDS011;35569;48.402;10.670;2023-11-19T02:59:21;0.70;;;0.70;;
10489;SDS011;35569;48.402;10.670;2023-11-19T02:59:59;0.57;;;0.57;;
10489;SDS011;35569;48.402;10.670;2023-11-19T03:00:31;0.70;;;0.70;;
10489;SDS011;35569;48.402;10.670;2023-11-19T03:01:07;0.63;;;0.63;;
10489;SDS011;35569;48.402;10.670;2023-11-19T03:01:51;0.70;;;0.70;;
10489;SDS011;35569;48.402;10.670;2023-11-19T03:02:24;0.50;;;0.50;;
10489;SDS011;35569;48.402;10.670;2023-11-19T03:03:05;0.60;;;0.60;;
10489;SDS011;35569;48.402;10.670;2023-11-19T03:03:52;0.80;;;0.80;;
10489;SDS011;35569;48.402;10.670;2023-11-19T03:04:29;0.60;;;0.60;;
10489;SDS011;35569;48.402;10.670;2023-11-19T03:05:02;0.40;;;0.40;;
10489;SDS011;35569;48.402;10.670;2023-11-19T03:05:36;0.70;;;0.70;;
10489;SDS011;35569;48.402;10.670;2023-11-19T03:06:12;0.60;;;0.60;;
10489;SDS011;35569;48.402;10.670;2023-11-19T03:06:44;0.50;;;0.50;;
10489;SDS011;35569;48.402;10.670;2023-11-19T03:07:17;0.70;;;0.70;;
10489;SDS011;35569;48.402;10.670;2023-11-19T03:07:49;0.60;;;0.60;;
10489;SDS011;35569;48.402;10.670;2023-11-19T03:08:24;0.50;;;0.50;;
10489;SDS011;35569;48.402;10.670;2023-11-19T03:08:57;0.77;;;0.77;;
10489;SDS011;35569;48.402;10.670;2023-11-19T03:09:29;0.70;;;0.70;;
10489;SDS011;35569;48.402;10.670;2023-11-19T03:10:02;0.50;;;0.50;;
10489;SDS011;35569;48.402;10.670;2023-11-19T03:10:37;0.50;;;0.50;;
10489;SDS011;35569;48.402;10.670;2023-11-19T03:11:10;0.63;;;0.63;;
10489;SDS011;35569;48.402;10.670;2023-11-19T03:11:43;0.60;;;0.60;;
10489;SDS011;35569;48.402;10.670;2023-11-19T03:12:18;0.80;;;0.80;;
10489;SDS011;35569;48.402;10.670;2023-11-19T03:12:51;0.70;;;0.70;;
10489;SDS011;35569;48.402;10.670;2023-11-19T03:13:23;1.37;;;0.70;;
10489;SDS011;35569;48.402;10.670;2023-11-19T03:14:01;0.63;;;0.63;;
10489;SDS011;35569;48.402;10.670;2023-11-19T03:14:34;0.60;;;0.60;;
10489;SDS011;35569;48.402;10.670;2023-11-19T03:15:07;0.70;;;0.70;;
10489;SDS011;35569;48.402;10.670;2023-11-19T03:15:43;0.60;;;0.60;;
10489;SDS011;35569;48.402;10.670;2023-11-19T03:16:16;0.67;;;0.67;;
10489;SDS011;35569;48.402;10.670;2023-11-19T03:16:49;0.83;;;0.83;;
10489;SDS011;35569;48.402;10.670;2023-11-19T03:17:22;0.70;;;0.70;;
10489;SDS011;35569;48.402;10.670;2023-11-19T03:17:58;0.70;;;0.70;;
10489;SDS011;35569;48.402;10.670;2023-11-19T03:18:30;0.50;;;0.50;;
10489;SDS011;35569;48.402;10.670;2023-11-19T03:19:03;0.70;;;0.70;;
10489;SDS011;35569;48.402;10.670;2023-11-19T03:19:36;0.60;;;0.60;;
10489;SDS011;35569;48.402;10.670;2023-11-19T03:20:11;0.40;;;0.40;;
10489;SDS011;35569;48.402;10.670;2023-11-19T03:20:47;0.80;;;0.80;;
10489;SDS011;35569;48.402;10.670;2023-11-19T03:21:19;0.60;;;0.60;;
10489;SDS011;35569;48.402;10.670;2023-11-19T03:21:54;0.70;;;0.70;;
10489;SDS011;35569;48.402;10.670;2023-11-19T03:22:27;0.60;;;0.60;;
10489;SDS011;35569;48.402;10.670;2023-11-19T03:22:59;0.60;;;0.60;;
10489;SDS011;35569;48.402;10.670;2023-11-19T03:23:33;0.63;;;0.63;;
10489;SDS011;35569;48.402;10.670;2023-11-19T03:24:08;0.60;;;0.60;;